sensor_id;sensor_type;location;lat;lon;timestamp;temperature;humidity
62259;DHT22;48241;48.824;10.102;2022-10-22T00:03:34;15.90;98.00
62259;DHT22;48241;48.824;10.102;2022-10-22T00:10:39;15.70;97.90
62259;DHT22;48241;48.824;10.102;2022-10-22T00:13:53;15.70;97.60
62259;DHT22;48241;48.824;10.102;2022-10-22T00:20:08;15.50;97.40
62259;DHT22;48241;48.824;10.102;2022-10-22T00:23:21;15.30;97.80
62259;DHT22;48241;48.824;10.102;2022-10-22T00:25:58;15.20;97.90
62259;DHT22;48241;48.824;10.102;2022-10-22T00:28:24;15.10;98.20
62259;DHT22;48241;48.824;10.102;2022-10-22T00:30:57;15.00;98.90
62259;DHT22;48241;48.824;10.102;2022-10-22T00:33:23;15.20;98.50
62259;DHT22;48241;48.824;10.102;2022-10-22T00:35:49;15.30;98.20
62259;DHT22;48241;48.824;10.102;2022-10-22T00:38:15;15.20;98.30
62259;DHT22;48241;48.824;10.102;2022-10-22T00:40:41;15.20;98.00
62259;DHT22;48241;48.824;10.102;2022-10-22T00:43:16;15.00;98.20
62259;DHT22;48241;48.824;10.102;2022-10-22T00:45:43;14.80;99.00
62259;DHT22;48241;48.824;10.102;2022-10-22T00:48:17;14.90;98.70
62259;DHT22;48241;48.824;10.102;2022-10-22T00:53:24;15.00;98.00
62259;DHT22;48241;48.824;10.102;2022-10-22T00:55:51;15.00;98.40
62259;DHT22;48241;48.824;10.102;2022-10-22T00:58:20;15.20;98.10
62259;DHT22;48241;48.824;10.102;2022-10-22T01:00:47;15.20;97.90
62259;DHT22;48241;48.824;10.102;2022-10-22T01:03:13;15.10;97.30
62259;DHT22;48241;48.824;10.102;2022-10-22T01:05:42;15.30;97.20
62259;DHT22;48241;48.824;10.102;2022-10-22T01:08:13;15.30;97.30
62259;DHT22;48241;48.824;10.102;2022-10-22T01:13:30;15.00;97.60
62259;DHT22;48241;48.824;10.102;2022-10-22T01:16:10;14.90;98.20
62259;DHT22;48241;48.824;10.102;2022-10-22T01:21:56;15.00;98.00
62259;DHT22;48241;48.824;10.102;2022-10-22T01:24:39;15.20;97.70
62259;DHT22;48241;48.824;10.102;2022-10-22T01:30:02;15.20;97.70
62259;DHT22;48241;48.824;10.102;2022-10-22T01:33:14;15.20;97.20
62259;DHT22;48241;48.824;10.102;2022-10-22T01:35:30;15.20;97.00
62259;DHT22;48241;48.824;10.102;2022-10-22T01:38:00;15.10;97.40
62259;DHT22;48241;48.824;10.102;2022-10-22T01:40:27;15.00;97.20
62259;DHT22;48241;48.824;10.102;2022-10-22T01:42:59;15.10;97.00
62259;DHT22;48241;48.824;10.102;2022-10-22T01:45:25;15.10;96.90
62259;DHT22;48241;48.824;10.102;2022-10-22T01:50:55;14.90;97.10
62259;DHT22;48241;48.824;10.102;2022-10-22T01:53:36;14.80;97.60
62259;DHT22;48241;48.824;10.102;2022-10-22T02:01:58;14.50;97.20
62259;DHT22;48241;48.824;10.102;2022-10-22T02:07:36;14.40;98.00
62259;DHT22;48241;48.824;10.102;2022-10-22T02:10:05;14.30;97.90
62259;DHT22;48241;48.824;10.102;2022-10-22T02:12:33;14.40;98.20
62259;DHT22;48241;48.824;10.102;2022-10-22T02:15:00;14.40;98.20
62259;DHT22;48241;48.824;10.102;2022-10-22T02:17:28;14.20;98.80
62259;DHT22;48241;48.824;10.102;2022-10-22T02:20:00;14.10;98.10
62259;DHT22;48241;48.824;10.102;2022-10-22T02:22:28;14.00;98.40
62259;DHT22;48241;48.824;10.102;2022-10-22T02:24:54;14.00;98.90
62259;DHT22;48241;48.824;10.102;2022-10-22T02:27:29;13.80;99.70
62259;DHT22;48241;48.824;10.102;2022-10-22T02:30:09;13.60;99.90
62259;DHT22;48241;48.824;10.102;2022-10-22T02:32:53;13.40;99.90
62259;DHT22;48241;48.824;10.102;2022-10-22T02:35:22;13.40;99.90
62259;DHT22;48241;48.824;10.102;2022-10-22T02:37:49;13.70;99.90
62259;DHT22;48241;48.824;10.102;2022-10-22T02:40:16;14.00;99.60
62259;DHT22;48241;48.824;10.102;2022-10-22T02:42:42;13.90;99.30
62259;DHT22;48241;48.824;10.102;2022-10-22T02:45:08;14.00;99.40
62259;DHT22;48241;48.824;10.102;2022-10-22T02:47:34;14.20;99.10
62259;DHT22;48241;48.824;10.102;2022-10-22T02:50:00;14.30;99.20
62259;DHT22;48241;48.824;10.102;2022-10-22T02:52:25;14.40;98.70
62259;DHT22;48241;48.824;10.102;2022-10-22T02:54:51;14.40;99.00
62259;DHT22;48241;48.824;10.102;2022-10-22T02:57:16;14.50;98.60
62259;DHT22;48241;48.824;10.102;2022-10-22T02:59:42;14.50;98.10
62259;DHT22;48241;48.824;10.102;2022-10-22T03:02:08;14.50;98.00
62259;DHT22;48241;48.824;10.102;2022-10-22T03:04:33;14.50;98.30
62259;DHT22;48241;48.824;10.102;2022-10-22T03:06:59;14.30;97.90
62259;DHT22;48241;48.824;10.102;2022-10-22T03:09:24;14.30;98.20
62259;DHT22;48241;48.824;10.102;2022-10-22T03:11:50;14.30;98.20
62259;DHT22;48241;48.824;10.102;2022-10-22T03:14:16;14.40;98.00
62259;DHT22;48241;48.824;10.102;2022-10-22T03:16:42;14.20;98.30
62259;DHT22;48241;48.824;10.102;2022-10-22T03:19:07;14.10;98.10
62259;DHT22;48241;48.824;10.102;2022-10-22T03:21:48;14.00;98.50
62259;DHT22;48241;48.824;10.102;2022-10-22T03:24:18;13.90;98.70
62259;DHT22;48241;48.824;10.102;2022-10-22T03:26:47;13.90;98.40
62259;DHT22;48241;48.824;10.102;2022-10-22T03:29:15;13.80;98.70
62259;DHT22;48241;48.824;10.102;2022-10-22T03:31:41;13.80;98.90
62259;DHT22;48241;48.824;10.102;2022-10-22T03:34:06;13.90;98.80
62259;DHT22;48241;48.824;10.102;2022-10-22T03:36:32;13.80;98.80
62259;DHT22;48241;48.824;10.102;2022-10-22T03:38:59;13.70;99.00
62259;DHT22;48241;48.824;10.102;2022-10-22T03:41:25;13.70;99.30
62259;DHT22;48241;48.824;10.102;2022-10-22T03:43:52;13.60;99.30
62259;DHT22;48241;48.824;10.102;2022-10-22T03:46:19;13.60;99.20
62259;DHT22;48241;48.824;10.102;2022-10-22T03:48:45;13.60;99.70
62259;DHT22;48241;48.824;10.102;2022-10-22T03:51:10;13.40;98.60
62259;DHT22;48241;48.824;10.102;2022-10-22T03:53:36;13.50;99.90
62259;DHT22;48241;48.824;10.102;2022-10-22T03:56:02;13.80;99.50
62259;DHT22;48241;48.824;10.102;2022-10-22T03:58:27;13.80;99.30
62259;DHT22;48241;48.824;10.102;2022-10-22T04:00:53;14.00;98.70
62259;DHT22;48241;48.824;10.102;2022-10-22T04:03:18;14.00;98.40
62259;DHT22;48241;48.824;10.102;2022-10-22T04:05:44;14.10;97.90
62259;DHT22;48241;48.824;10.102;2022-10-22T04:08:09;14.00;97.60
62259;DHT22;48241;48.824;10.102;2022-10-22T04:10:35;13.80;98.30
62259;DHT22;48241;48.824;10.102;2022-10-22T04:13:01;14.10;98.20
62259;DHT22;48241;48.824;10.102;2022-10-22T04:15:26;14.10;97.60
62259;DHT22;48241;48.824;10.102;2022-10-22T04:17:53;14.20;97.10
62259;DHT22;48241;48.824;10.102;2022-10-22T04:20:19;14.10;98.00
62259;DHT22;48241;48.824;10.102;2022-10-22T04:22:45;14.00;97.10
62259;DHT22;48241;48.824;10.102;2022-10-22T04:25:10;14.00;97.90
62259;DHT22;48241;48.824;10.102;2022-10-22T04:27:36;14.00;98.10
62259;DHT22;48241;48.824;10.102;2022-10-22T04:30:03;14.00;97.80
62259;DHT22;48241;48.824;10.102;2022-10-22T04:32:29;14.00;97.90
62259;DHT22;48241;48.824;10.102;2022-10-22T04:34:54;13.90;98.50
62259;DHT22;48241;48.824;10.102;2022-10-22T04:37:20;13.50;98.80
62259;DHT22;48241;48.824;10.102;2022-10-22T04:39:46;13.30;99.60
62259;DHT22;48241;48.824;10.102;2022-10-22T04:42:11;13.20;99.90
62259;DHT22;48241;48.824;10.102;2022-10-22T04:44:37;13.30;99.90
62259;DHT22;48241;48.824;10.102;2022-10-22T04:47:03;13.40;99.90
62259;DHT22;48241;48.824;10.102;2022-10-22T04:49:28;13.30;99.90
62259;DHT22;48241;48.824;10.102;2022-10-22T04:51:54;13.40;99.50
62259;DHT22;48241;48.824;10.102;2022-10-22T04:54:19;13.40;99.90
62259;DHT22;48241;48.824;10.102;2022-10-22T04:56:45;13.40;99.70
62259;DHT22;48241;48.824;10.102;2022-10-22T04:59:11;13.40;99.10
62259;DHT22;48241;48.824;10.102;2022-10-22T05:01:40;13.30;99.10
62259;DHT22;48241;48.824;10.102;2022-10-22T05:04:07;13.20;99.70
62259;DHT22;48241;48.824;10.102;2022-10-22T05:06:34;13.40;99.60
62259;DHT22;48241;48.824;10.102;2022-10-22T05:09:03;13.30;99.70
62259;DHT22;48241;48.824;10.102;2022-10-22T05:11:33;13.20;99.80
62259;DHT22;48241;48.824;10.102;2022-10-22T05:14:00;13.40;99.30
62259;DHT22;48241;48.824;10.102;2022-10-22T05:16:27;13.30;99.60
62259;DHT22;48241;48.824;10.102;2022-10-22T05:18:53;13.20;99.10
62259;DHT22;48241;48.824;10.102;2022-10-22T05:21:20;13.20;99.90
62259;DHT22;48241;48.824;10.102;2022-10-22T05:23:47;13.20;99.90
62259;DHT22;48241;48.824;10.102;2022-10-22T05:26:15;13.30;99.90
62259;DHT22;48241;48.824;10.102;2022-10-22T05:28:42;13.30;99.10
62259;DHT22;48241;48.824;10.102;2022-10-22T05:31:10;13.30;99.60
62259;DHT22;48241;48.824;10.102;2022-10-22T05:33:37;13.20;99.90
62259;DHT22;48241;48.824;10.102;2022-10-22T05:36:03;13.00;99.90
62259;DHT22;48241;48.824;10.102;2022-10-22T05:38:31;13.10;99.90
62259;DHT22;48241;48.824;10.102;2022-10-22T05:41:03;13.10;99.90
62259;DHT22;48241;48.824;10.102;2022-10-22T05:43:29;13.10;99.90
62259;DHT22;48241;48.824;10.102;2022-10-22T05:45:55;13.20;99.90
62259;DHT22;48241;48.824;10.102;2022-10-22T05:48:25;13.20;99.90
62259;DHT22;48241;48.824;10.102;2022-10-22T05:50:50;13.40;99.90
62259;DHT22;48241;48.824;10.102;2022-10-22T05:53:16;13.50;99.50
62259;DHT22;48241;48.824;10.102;2022-10-22T05:55:43;13.50;99.00
62259;DHT22;48241;48.824;10.102;2022-10-22T05:58:09;13.80;98.80
62259;DHT22;48241;48.824;10.102;2022-10-22T06:00:35;13.70;99.30
62259;DHT22;48241;48.824;10.102;2022-10-22T06:03:00;13.70;99.00
62259;DHT22;48241;48.824;10.102;2022-10-22T06:05:26;13.60;98.90
62259;DHT22;48241;48.824;10.102;2022-10-22T06:07:52;13.60;98.80
62259;DHT22;48241;48.824;10.102;2022-10-22T06:10:19;13.60;99.10
62259;DHT22;48241;48.824;10.102;2022-10-22T06:12:46;13.60;99.10
62259;DHT22;48241;48.824;10.102;2022-10-22T06:15:14;13.60;98.40
62259;DHT22;48241;48.824;10.102;2022-10-22T06:17:40;13.60;98.90
62259;DHT22;48241;48.824;10.102;2022-10-22T06:20:06;13.50;98.70
62259;DHT22;48241;48.824;10.102;2022-10-22T06:22:32;13.60;98.90
62259;DHT22;48241;48.824;10.102;2022-10-22T06:24:58;13.50;99.00
62259;DHT22;48241;48.824;10.102;2022-10-22T06:27:23;13.80;98.70
62259;DHT22;48241;48.824;10.102;2022-10-22T06:29:49;13.80;98.70
62259;DHT22;48241;48.824;10.102;2022-10-22T06:32:14;13.80;98.50
62259;DHT22;48241;48.824;10.102;2022-10-22T06:34:40;13.70;98.50
62259;DHT22;48241;48.824;10.102;2022-10-22T06:37:05;13.90;98.60
62259;DHT22;48241;48.824;10.102;2022-10-22T06:39:31;13.90;98.30
62259;DHT22;48241;48.824;10.102;2022-10-22T06:41:56;14.10;98.40
62259;DHT22;48241;48.824;10.102;2022-10-22T06:44:22;14.30;97.80
62259;DHT22;48241;48.824;10.102;2022-10-22T06:46:49;14.50;97.10
62259;DHT22;48241;48.824;10.102;2022-10-22T06:49:16;14.60;96.90
62259;DHT22;48241;48.824;10.102;2022-10-22T06:51:42;14.60;97.00
62259;DHT22;48241;48.824;10.102;2022-10-22T06:54:08;14.60;97.10
62259;DHT22;48241;48.824;10.102;2022-10-22T06:56:34;14.50;97.40
62259;DHT22;48241;48.824;10.102;2022-10-22T06:58:59;14.80;97.00
62259;DHT22;48241;48.824;10.102;2022-10-22T07:01:30;14.90;96.80
62259;DHT22;48241;48.824;10.102;2022-10-22T07:03:56;15.00;96.50
62259;DHT22;48241;48.824;10.102;2022-10-22T07:06:23;15.00;96.60
62259;DHT22;48241;48.824;10.102;2022-10-22T07:08:49;15.10;96.50
62259;DHT22;48241;48.824;10.102;2022-10-22T07:13:40;15.40;96.00
62259;DHT22;48241;48.824;10.102;2022-10-22T07:16:06;15.50;96.00
62259;DHT22;48241;48.824;10.102;2022-10-22T07:23:53;15.80;95.30
62259;DHT22;48241;48.824;10.102;2022-10-22T07:26:45;15.90;95.50
62259;DHT22;48241;48.824;10.102;2022-10-22T07:29:31;16.00;95.50
62259;DHT22;48241;48.824;10.102;2022-10-22T07:31:57;16.40;95.30
62259;DHT22;48241;48.824;10.102;2022-10-22T07:34:23;16.40;95.00
62259;DHT22;48241;48.824;10.102;2022-10-22T07:36:48;16.90;94.00
62259;DHT22;48241;48.824;10.102;2022-10-22T07:39:14;16.70;93.90
62259;DHT22;48241;48.824;10.102;2022-10-22T07:41:52;16.70;94.00
62259;DHT22;48241;48.824;10.102;2022-10-22T07:44:20;16.90;94.10
62259;DHT22;48241;48.824;10.102;2022-10-22T07:46:46;17.10;93.50
62259;DHT22;48241;48.824;10.102;2022-10-22T07:49:11;17.00;93.20
62259;DHT22;48241;48.824;10.102;2022-10-22T07:51:37;17.30;93.00
62259;DHT22;48241;48.824;10.102;2022-10-22T07:54:03;17.50;92.70
62259;DHT22;48241;48.824;10.102;2022-10-22T07:56:28;17.80;91.80
62259;DHT22;48241;48.824;10.102;2022-10-22T07:58:54;18.20;91.60
62259;DHT22;48241;48.824;10.102;2022-10-22T08:01:19;18.40;90.50
62259;DHT22;48241;48.824;10.102;2022-10-22T08:03:45;18.30;90.70
62259;DHT22;48241;48.824;10.102;2022-10-22T08:06:14;18.30;90.50
62259;DHT22;48241;48.824;10.102;2022-10-22T08:08:40;18.70;90.40
62259;DHT22;48241;48.824;10.102;2022-10-22T08:11:06;18.70;87.70
62259;DHT22;48241;48.824;10.102;2022-10-22T08:13:32;18.70;86.80
62259;DHT22;48241;48.824;10.102;2022-10-22T08:16:12;19.00;87.80
62259;DHT22;48241;48.824;10.102;2022-10-22T08:18:47;18.90;86.90
62259;DHT22;48241;48.824;10.102;2022-10-22T08:21:47;19.40;86.00
62259;DHT22;48241;48.824;10.102;2022-10-22T08:30:10;19.20;82.90
62259;DHT22;48241;48.824;10.102;2022-10-22T08:32:39;19.40;82.50
62259;DHT22;48241;48.824;10.102;2022-10-22T08:35:49;19.70;83.80
62259;DHT22;48241;48.824;10.102;2022-10-22T08:38:41;19.50;84.40
62259;DHT22;48241;48.824;10.102;2022-10-22T08:44:42;19.40;86.30
62259;DHT22;48241;48.824;10.102;2022-10-22T08:47:32;20.10;85.40
62259;DHT22;48241;48.824;10.102;2022-10-22T08:50:22;22.00;83.50
62259;DHT22;48241;48.824;10.102;2022-10-22T08:52:56;23.90;73.80
62259;DHT22;48241;48.824;10.102;2022-10-22T08:55:35;24.00;69.70
62259;DHT22;48241;48.824;10.102;2022-10-22T08:58:36;24.30;67.40
62259;DHT22;48241;48.824;10.102;2022-10-22T09:11:10;27.20;62.60
62259;DHT22;48241;48.824;10.102;2022-10-22T09:13:46;28.80;56.80
62259;DHT22;48241;48.824;10.102;2022-10-22T09:25:29;32.20;47.40
62259;DHT22;48241;48.824;10.102;2022-10-22T09:28:00;32.00;46.30
62259;DHT22;48241;48.824;10.102;2022-10-22T09:30:42;31.20;45.80
62259;DHT22;48241;48.824;10.102;2022-10-22T09:33:29;30.30;47.80
62259;DHT22;48241;48.824;10.102;2022-10-22T09:35:57;29.20;48.90
62259;DHT22;48241;48.824;10.102;2022-10-22T09:38:30;28.30;50.80
62259;DHT22;48241;48.824;10.102;2022-10-22T09:41:18;27.00;50.30
62259;DHT22;48241;48.824;10.102;2022-10-22T09:44:09;26.00;56.60
62259;DHT22;48241;48.824;10.102;2022-10-22T09:46:40;25.40;57.50
62259;DHT22;48241;48.824;10.102;2022-10-22T09:49:21;24.70;60.90
62259;DHT22;48241;48.824;10.102;2022-10-22T09:52:27;24.10;63.80
62259;DHT22;48241;48.824;10.102;2022-10-22T09:55:01;23.40;65.40
62259;DHT22;48241;48.824;10.102;2022-10-22T09:57:28;22.70;69.20
62259;DHT22;48241;48.824;10.102;2022-10-22T09:59:54;22.50;70.50
62259;DHT22;48241;48.824;10.102;2022-10-22T10:02:26;22.20;70.60
62259;DHT22;48241;48.824;10.102;2022-10-22T10:04:56;22.10;71.80
62259;DHT22;48241;48.824;10.102;2022-10-22T10:07:40;21.70;74.20
62259;DHT22;48241;48.824;10.102;2022-10-22T10:10:22;21.70;73.60
62259;DHT22;48241;48.824;10.102;2022-10-22T10:13:18;21.40;75.10
62259;DHT22;48241;48.824;10.102;2022-10-22T10:15:57;21.20;75.80
62259;DHT22;48241;48.824;10.102;2022-10-22T10:37:32;20.70;78.90
62259;DHT22;48241;48.824;10.102;2022-10-22T10:42:45;20.70;78.50
62259;DHT22;48241;48.824;10.102;2022-10-22T10:53:20;20.70;78.60
62259;DHT22;48241;48.824;10.102;2022-10-22T10:58:34;20.40;77.90
62259;DHT22;48241;48.824;10.102;2022-10-22T11:01:17;20.20;80.70
62259;DHT22;48241;48.824;10.102;2022-10-22T11:06:41;19.80;78.30
62259;DHT22;48241;48.824;10.102;2022-10-22T11:09:28;19.60;79.80
62259;DHT22;48241;48.824;10.102;2022-10-22T11:12:05;19.50;80.70
62259;DHT22;48241;48.824;10.102;2022-10-22T11:14:53;19.40;81.50
62259;DHT22;48241;48.824;10.102;2022-10-22T11:17:24;19.30;82.50
62259;DHT22;48241;48.824;10.102;2022-10-22T11:19:55;19.20;85.40
62259;DHT22;48241;48.824;10.102;2022-10-22T11:22:42;19.20;82.60
62259;DHT22;48241;48.824;10.102;2022-10-22T11:25:17;19.30;82.80
62259;DHT22;48241;48.824;10.102;2022-10-22T11:27:52;19.30;82.20
62259;DHT22;48241;48.824;10.102;2022-10-22T11:30:24;19.20;84.00
62259;DHT22;48241;48.824;10.102;2022-10-22T11:32:56;19.40;79.80
62259;DHT22;48241;48.824;10.102;2022-10-22T11:35:33;19.50;80.90
62259;DHT22;48241;48.824;10.102;2022-10-22T11:38:03;19.30;82.60
62259;DHT22;48241;48.824;10.102;2022-10-22T11:40:36;19.50;80.50
62259;DHT22;48241;48.824;10.102;2022-10-22T11:43:07;19.50;82.10
62259;DHT22;48241;48.824;10.102;2022-10-22T11:45:41;19.30;83.70
62259;DHT22;48241;48.824;10.102;2022-10-22T11:48:18;19.50;80.50
62259;DHT22;48241;48.824;10.102;2022-10-22T11:50:58;19.50;83.10
62259;DHT22;48241;48.824;10.102;2022-10-22T11:56:44;19.30;82.70
62259;DHT22;48241;48.824;10.102;2022-10-22T11:59:37;19.50;80.60
62259;DHT22;48241;48.824;10.102;2022-10-22T12:02:23;19.80;81.40
62259;DHT22;48241;48.824;10.102;2022-10-22T12:04:49;20.10;78.30
62259;DHT22;48241;48.824;10.102;2022-10-22T12:07:58;20.70;78.40
62259;DHT22;48241;48.824;10.102;2022-10-22T12:10:34;21.10;75.90
62259;DHT22;48241;48.824;10.102;2022-10-22T12:13:24;21.30;75.70
62259;DHT22;48241;48.824;10.102;2022-10-22T12:15:53;21.70;72.10
62259;DHT22;48241;48.824;10.102;2022-10-22T12:18:23;21.80;70.20
62259;DHT22;48241;48.824;10.102;2022-10-22T12:20:51;22.00;69.70
62259;DHT22;48241;48.824;10.102;2022-10-22T12:23:17;22.30;68.80
62259;DHT22;48241;48.824;10.102;2022-10-22T12:25:43;22.50;69.00
62259;DHT22;48241;48.824;10.102;2022-10-22T12:28:11;22.70;69.00
62259;DHT22;48241;48.824;10.102;2022-10-22T12:30:37;22.60;69.70
62259;DHT22;48241;48.824;10.102;2022-10-22T12:33:05;22.90;68.80
62259;DHT22;48241;48.824;10.102;2022-10-22T12:35:40;22.90;65.80
62259;DHT22;48241;48.824;10.102;2022-10-22T12:38:18;22.80;65.60
62259;DHT22;48241;48.824;10.102;2022-10-22T12:40:46;22.30;65.30
62259;DHT22;48241;48.824;10.102;2022-10-22T12:43:24;22.10;67.10
62259;DHT22;48241;48.824;10.102;2022-10-22T12:45:51;21.80;70.40
62259;DHT22;48241;48.824;10.102;2022-10-22T12:48:44;21.50;72.30
62259;DHT22;48241;48.824;10.102;2022-10-22T12:51:15;21.40;72.80
62259;DHT22;48241;48.824;10.102;2022-10-22T12:53:50;21.30;72.30
62259;DHT22;48241;48.824;10.102;2022-10-22T12:56:22;21.20;74.00
62259;DHT22;48241;48.824;10.102;2022-10-22T12:58:57;21.10;72.40
62259;DHT22;48241;48.824;10.102;2022-10-22T13:01:26;20.70;73.60
62259;DHT22;48241;48.824;10.102;2022-10-22T13:04:18;20.50;75.10
62259;DHT22;48241;48.824;10.102;2022-10-22T13:07:01;20.60;76.80
62259;DHT22;48241;48.824;10.102;2022-10-22T13:09:37;20.40;76.00
62259;DHT22;48241;48.824;10.102;2022-10-22T13:12:04;20.40;75.10
62259;DHT22;48241;48.824;10.102;2022-10-22T13:14:33;20.70;74.40
62259;DHT22;48241;48.824;10.102;2022-10-22T13:17:19;20.60;75.40
62259;DHT22;48241;48.824;10.102;2022-10-22T13:24:55;20.60;74.30
62259;DHT22;48241;48.824;10.102;2022-10-22T13:27:23;20.60;74.80
62259;DHT22;48241;48.824;10.102;2022-10-22T13:29:49;20.50;75.50
62259;DHT22;48241;48.824;10.102;2022-10-22T13:32:32;20.50;74.00
62259;DHT22;48241;48.824;10.102;2022-10-22T13:35:00;20.50;76.20
62259;DHT22;48241;48.824;10.102;2022-10-22T13:37:51;20.50;76.00
62259;DHT22;48241;48.824;10.102;2022-10-22T13:40:17;20.50;76.70
62259;DHT22;48241;48.824;10.102;2022-10-22T13:42:43;20.20;76.90
62259;DHT22;48241;48.824;10.102;2022-10-22T13:45:20;20.10;77.10
62259;DHT22;48241;48.824;10.102;2022-10-22T13:47:53;20.20;77.40
62259;DHT22;48241;48.824;10.102;2022-10-22T13:50:20;20.00;77.40
62259;DHT22;48241;48.824;10.102;2022-10-22T13:52:53;19.90;78.40
62259;DHT22;48241;48.824;10.102;2022-10-22T13:55:23;19.90;78.60
62259;DHT22;48241;48.824;10.102;2022-10-22T13:58:15;20.00;79.40
62259;DHT22;48241;48.824;10.102;2022-10-22T14:00:49;19.70;80.20
62259;DHT22;48241;48.824;10.102;2022-10-22T14:03:18;19.60;81.00
62259;DHT22;48241;48.824;10.102;2022-10-22T14:05:45;19.30;82.30
62259;DHT22;48241;48.824;10.102;2022-10-22T14:08:13;19.30;83.90
62259;DHT22;48241;48.824;10.102;2022-10-22T14:10:39;18.90;84.60
62259;DHT22;48241;48.824;10.102;2022-10-22T14:13:06;18.80;86.00
62259;DHT22;48241;48.824;10.102;2022-10-22T14:15:33;18.60;85.00
62259;DHT22;48241;48.824;10.102;2022-10-22T14:17:59;18.50;87.90
62259;DHT22;48241;48.824;10.102;2022-10-22T14:20:28;18.50;88.00
62259;DHT22;48241;48.824;10.102;2022-10-22T14:22:54;18.50;88.10
62259;DHT22;48241;48.824;10.102;2022-10-22T14:25:23;18.60;88.70
62259;DHT22;48241;48.824;10.102;2022-10-22T14:27:49;18.50;88.70
62259;DHT22;48241;48.824;10.102;2022-10-22T14:30:17;18.40;88.10
62259;DHT22;48241;48.824;10.102;2022-10-22T14:32:43;18.20;89.60
62259;DHT22;48241;48.824;10.102;2022-10-22T14:35:12;18.10;90.30
62259;DHT22;48241;48.824;10.102;2022-10-22T14:37:38;18.10;90.50
62259;DHT22;48241;48.824;10.102;2022-10-22T14:40:04;18.10;90.90
62259;DHT22;48241;48.824;10.102;2022-10-22T14:42:30;18.10;90.70
62259;DHT22;48241;48.824;10.102;2022-10-22T14:44:55;18.20;91.00
62259;DHT22;48241;48.824;10.102;2022-10-22T14:47:21;18.10;90.80
62259;DHT22;48241;48.824;10.102;2022-10-22T14:49:47;18.00;90.90
62259;DHT22;48241;48.824;10.102;2022-10-22T14:52:12;17.80;91.00
62259;DHT22;48241;48.824;10.102;2022-10-22T14:54:38;17.70;91.50
62259;DHT22;48241;48.824;10.102;2022-10-22T14:57:04;17.70;91.30
62259;DHT22;48241;48.824;10.102;2022-10-22T14:59:30;17.50;91.60
62259;DHT22;48241;48.824;10.102;2022-10-22T15:01:56;17.50;91.20
62259;DHT22;48241;48.824;10.102;2022-10-22T15:04:21;17.40;90.90
62259;DHT22;48241;48.824;10.102;2022-10-22T15:06:47;17.40;90.80
62259;DHT22;48241;48.824;10.102;2022-10-22T15:09:13;17.30;90.80
62259;DHT22;48241;48.824;10.102;2022-10-22T15:11:38;17.30;91.30
62259;DHT22;48241;48.824;10.102;2022-10-22T15:14:04;17.20;91.10
62259;DHT22;48241;48.824;10.102;2022-10-22T15:16:30;17.10;91.10
62259;DHT22;48241;48.824;10.102;2022-10-22T15:18:55;16.90;91.90
62259;DHT22;48241;48.824;10.102;2022-10-22T15:21:22;16.90;92.20
62259;DHT22;48241;48.824;10.102;2022-10-22T15:23:48;16.90;92.20
62259;DHT22;48241;48.824;10.102;2022-10-22T15:26:14;16.80;92.60
62259;DHT22;48241;48.824;10.102;2022-10-22T15:28:40;16.80;92.70
62259;DHT22;48241;48.824;10.102;2022-10-22T15:31:07;16.80;92.60
62259;DHT22;48241;48.824;10.102;2022-10-22T15:33:33;16.80;92.80
62259;DHT22;48241;48.824;10.102;2022-10-22T15:36:12;16.50;93.00
62259;DHT22;48241;48.824;10.102;2022-10-22T15:38:38;16.60;92.60
62259;DHT22;48241;48.824;10.102;2022-10-22T15:41:06;16.50;92.90
62259;DHT22;48241;48.824;10.102;2022-10-22T15:43:33;16.30;92.30
62259;DHT22;48241;48.824;10.102;2022-10-22T15:46:12;16.30;92.20
62259;DHT22;48241;48.824;10.102;2022-10-22T15:48:38;16.10;92.00
62259;DHT22;48241;48.824;10.102;2022-10-22T15:51:09;16.00;92.30
62259;DHT22;48241;48.824;10.102;2022-10-22T15:53:35;15.90;92.10
62259;DHT22;48241;48.824;10.102;2022-10-22T15:56:01;16.00;92.30
62259;DHT22;48241;48.824;10.102;2022-10-22T15:58:27;15.80;92.20
62259;DHT22;48241;48.824;10.102;2022-10-22T16:00:52;15.80;92.30
62259;DHT22;48241;48.824;10.102;2022-10-22T16:03:18;15.60;92.50
62259;DHT22;48241;48.824;10.102;2022-10-22T16:05:52;15.60;92.80
62259;DHT22;48241;48.824;10.102;2022-10-22T16:08:19;15.50;93.40
62259;DHT22;48241;48.824;10.102;2022-10-22T16:10:45;15.50;93.60
62259;DHT22;48241;48.824;10.102;2022-10-22T16:13:13;15.30;93.80
62259;DHT22;48241;48.824;10.102;2022-10-22T16:15:38;15.40;94.10
62259;DHT22;48241;48.824;10.102;2022-10-22T16:18:04;15.30;94.40
62259;DHT22;48241;48.824;10.102;2022-10-22T16:20:30;15.10;94.70
62259;DHT22;48241;48.824;10.102;2022-10-22T16:22:55;15.00;95.10
62259;DHT22;48241;48.824;10.102;2022-10-22T16:25:21;15.00;95.70
62259;DHT22;48241;48.824;10.102;2022-10-22T16:27:50;15.00;95.70
62259;DHT22;48241;48.824;10.102;2022-10-22T16:30:16;14.90;95.20
62259;DHT22;48241;48.824;10.102;2022-10-22T16:32:42;14.80;95.50
62259;DHT22;48241;48.824;10.102;2022-10-22T16:35:08;14.90;95.40
62259;DHT22;48241;48.824;10.102;2022-10-22T16:37:33;14.70;95.80
62259;DHT22;48241;48.824;10.102;2022-10-22T16:39:59;14.60;96.10
62259;DHT22;48241;48.824;10.102;2022-10-22T16:42:24;14.50;96.50
62259;DHT22;48241;48.824;10.102;2022-10-22T16:44:50;14.60;97.00
62259;DHT22;48241;48.824;10.102;2022-10-22T16:47:15;14.50;96.80
62259;DHT22;48241;48.824;10.102;2022-10-22T16:49:41;14.70;96.50
62259;DHT22;48241;48.824;10.102;2022-10-22T16:52:07;14.70;95.90
62259;DHT22;48241;48.824;10.102;2022-10-22T16:54:32;14.70;95.60
62259;DHT22;48241;48.824;10.102;2022-10-22T16:56:58;14.50;96.10
62259;DHT22;48241;48.824;10.102;2022-10-22T16:59:23;14.40;96.00
62259;DHT22;48241;48.824;10.102;2022-10-22T17:01:49;14.20;96.80
62259;DHT22;48241;48.824;10.102;2022-10-22T17:04:14;14.00;97.10
62259;DHT22;48241;48.824;10.102;2022-10-22T17:06:42;13.90;97.70
62259;DHT22;48241;48.824;10.102;2022-10-22T17:09:07;13.90;98.10
62259;DHT22;48241;48.824;10.102;2022-10-22T17:11:33;13.90;98.10
62259;DHT22;48241;48.824;10.102;2022-10-22T17:14:00;13.90;98.10
62259;DHT22;48241;48.824;10.102;2022-10-22T17:16:26;13.90;98.10
62259;DHT22;48241;48.824;10.102;2022-10-22T17:18:53;14.00;97.90
62259;DHT22;48241;48.824;10.102;2022-10-22T17:21:20;13.90;97.90
62259;DHT22;48241;48.824;10.102;2022-10-22T17:23:46;14.00;97.90
62259;DHT22;48241;48.824;10.102;2022-10-22T17:26:17;13.80;98.10
62259;DHT22;48241;48.824;10.102;2022-10-22T17:28:45;13.90;97.90